createdAt,value
2018-03-01T00:01:31.735Z,8.30
2018-03-01T00:04:14.699Z,8.20
2018-03-01T00:06:51.255Z,8.10
2018-03-01T00:09:27.127Z,8.00
2018-03-01T00:11:57.534Z,8.00
2018-03-01T00:14:25.062Z,8.00
2018-03-01T00:17:08.790Z,8.30
2018-03-01T00:19:36.303Z,8.30
2018-03-01T00:22:03.953Z,8.80
2018-03-01T00:24:31.469Z,9.20
2018-03-01T00:26:59.027Z,9.60
2018-03-01T00:32:19.779Z,10.40
2018-03-01T00:35:08.198Z,10.70
2018-03-01T00:37:56.205Z,11.00
2018-03-01T00:40:23.726Z,11.20
2018-03-01T00:42:51.249Z,11.40
2018-03-01T00:45:27.125Z,11.60
2018-03-01T00:47:54.654Z,11.70
2018-03-01T00:50:33.146Z,11.90
2018-03-01T00:53:03.540Z,12.00
2018-03-01T00:55:33.442Z,11.70
2018-03-01T00:58:00.986Z,11.60
2018-03-01T01:00:28.502Z,11.10
2018-03-01T01:02:56.102Z,10.60
2018-03-01T01:05:23.628Z,10.20
2018-03-01T01:07:51.207Z,9.70
2018-03-01T01:10:21.389Z,9.40
2018-03-01T01:12:57.192Z,8.90
2018-03-01T01:21:10.329Z,8.50
2018-03-01T01:26:33.398Z,8.30
2018-03-01T01:29:00.994Z,8.20
2018-03-01T01:34:21.975Z,8.00
2018-03-01T01:36:51.547Z,8.00
2018-03-01T01:39:27.311Z,8.00
2018-03-01T01:42:03.172Z,8.00
2018-03-01T01:44:33.599Z,8.30
2018-03-01T01:47:01.162Z,9.20
2018-03-01T01:49:28.737Z,9.60
2018-03-01T01:51:57.556Z,9.70
2018-03-01T01:54:25.083Z,10.40
2018-03-01T01:56:57.585Z,10.80
2018-03-01T01:59:38.951Z,11.00
2018-03-01T02:02:06.444Z,11.20
2018-03-01T02:07:26.884Z,11.50
2018-03-01T02:10:03.280Z,11.60
2018-03-01T02:12:44.817Z,11.80
2018-03-01T02:15:21.127Z,11.90
2018-03-01T02:17:52.813Z,12.00
2018-03-01T02:20:21.503Z,11.90
2018-03-01T02:22:57.202Z,11.50
2018-03-01T02:25:33.470Z,11.40
2018-03-01T02:28:00.995Z,10.80
2018-03-01T02:33:27.438Z,9.80
2018-03-01T02:36:03.229Z,9.50
2018-03-01T02:38:33.490Z,9.10
2018-03-01T02:41:01.408Z,8.80
2018-03-01T02:43:28.922Z,8.80
2018-03-01T02:46:03.312Z,8.50
2018-03-01T02:48:30.833Z,8.50
2018-03-01T02:51:03.685Z,8.20
2018-03-01T02:53:31.194Z,8.20
2018-03-01T02:55:58.716Z,8.10
2018-03-01T02:58:26.238Z,8.00
2018-03-01T03:03:51.460Z,8.00
2018-03-01T03:06:19.219Z,8.10
2018-03-01T03:08:51.700Z,8.40
2018-03-01T03:11:38.299Z,8.80
2018-03-01T03:14:15.167Z,9.30
2018-03-01T03:16:45.630Z,9.80
2018-03-01T03:19:13.146Z,10.20
2018-03-01T03:21:45.479Z,10.60
2018-03-01T03:24:12.993Z,10.80
2018-03-01T03:26:51.270Z,11.00
2018-03-01T03:29:21.943Z,11.20
2018-03-01T03:31:51.634Z,11.40
2018-03-01T03:34:19.149Z,11.80
2018-03-01T03:36:57.134Z,11.80
2018-03-01T03:39:24.656Z,11.90
2018-03-01T03:42:03.262Z,12.10
2018-03-01T03:44:31.038Z,12.10
2018-03-01T03:47:09.217Z,11.70
2018-03-01T03:49:51.087Z,10.80
2018-03-01T03:52:18.602Z,10.70
2018-03-01T04:03:25.839Z,8.90
2018-03-01T04:05:57.481Z,8.60
2018-03-01T04:08:25.002Z,8.50
2018-03-01T04:11:08.817Z,8.50
2018-03-01T04:16:29.718Z,8.30
2018-03-01T04:21:57.720Z,8.10
2018-03-01T04:24:27.491Z,8.10
2018-03-01T04:26:55.002Z,8.00
2018-03-01T04:29:44.433Z,7.90
2018-03-01T04:32:21.183Z,7.90
2018-03-01T04:34:51.653Z,8.00
2018-03-01T04:37:27.294Z,8.40
2018-03-01T04:39:57.500Z,9.50
2018-03-01T04:42:25.031Z,9.80
2018-03-01T04:44:52.608Z,9.80
2018-03-01T04:50:15.694Z,10.60
2018-03-01T04:52:56.839Z,11.10
2018-03-01T04:55:24.359Z,11.10
2018-03-01T04:57:51.906Z,11.30
2018-03-01T05:00:38.828Z,11.40
2018-03-01T05:03:06.379Z,11.40
2018-03-01T05:05:56.390Z,11.00
2018-03-01T05:08:27.706Z,10.40
2018-03-01T05:10:55.216Z,9.90
2018-03-01T05:13:22.762Z,9.50
2018-03-01T05:15:51.686Z,9.20
2018-03-01T05:18:27.227Z,8.90
2018-03-01T05:21:03.306Z,8.70
2018-03-01T05:23:30.901Z,8.50
2018-03-01T05:25:58.487Z,8.30
2018-03-01T05:28:26.008Z,8.30
2018-03-01T05:30:54.343Z,8.10
2018-03-01T05:33:22.267Z,8.00
2018-03-01T05:35:51.622Z,7.90
2018-03-01T05:38:19.144Z,8.00
2018-03-01T05:40:46.669Z,8.30
2018-03-01T05:43:14.192Z,8.70
2018-03-01T05:45:41.707Z,9.10
2018-03-01T05:48:09.530Z,9.10
2018-03-01T05:50:37.167Z,9.90
2018-03-01T05:53:04.675Z,10.20
2018-03-01T05:55:32.213Z,10.50
2018-03-01T05:57:59.730Z,10.80
2018-03-01T06:00:27.251Z,11.00
2018-03-01T06:02:54.771Z,11.10
2018-03-01T06:05:22.300Z,11.40
2018-03-01T06:07:49.811Z,11.50
2018-03-01T06:10:17.349Z,11.60
2018-03-01T06:12:44.870Z,11.30
2018-03-01T06:15:12.378Z,10.70
2018-03-01T06:17:45.736Z,10.70
2018-03-01T06:20:21.261Z,10.20
2018-03-01T06:22:48.855Z,9.70
2018-03-01T06:25:16.541Z,9.10
2018-03-01T06:27:44.154Z,8.90
2018-03-01T06:30:11.689Z,8.90
2018-03-01T06:32:39.228Z,8.70
2018-03-01T06:35:06.752Z,8.50
2018-03-01T06:37:39.743Z,8.30
2018-03-01T06:40:07.263Z,8.20
2018-03-01T06:42:34.927Z,8.00
2018-03-01T06:45:02.450Z,7.90
2018-03-01T06:47:30.032Z,7.90
2018-03-01T06:49:57.651Z,8.00
2018-03-01T06:52:27.787Z,8.30
2018-03-01T06:54:57.671Z,8.70
2018-03-01T06:57:25.205Z,9.10
2018-03-01T06:59:52.784Z,9.60
2018-03-01T07:02:20.319Z,10.00
2018-03-01T07:04:47.915Z,10.30
2018-03-01T07:07:15.462Z,10.60
2018-03-01T07:09:43.015Z,10.80
2018-03-01T07:12:10.537Z,11.10
2018-03-01T07:14:38.057Z,11.20
2018-03-01T07:17:06.001Z,11.60
2018-03-01T07:19:33.522Z,11.60
2018-03-01T07:22:01.038Z,11.70
2018-03-01T07:24:28.982Z,10.90
2018-03-01T07:26:56.508Z,10.90
2018-03-01T07:29:24.040Z,10.40
2018-03-01T07:31:51.590Z,10.00
2018-03-01T07:34:19.111Z,9.70
2018-03-01T07:36:46.627Z,9.40
2018-03-01T07:39:14.153Z,9.20
2018-03-01T07:41:42.062Z,8.90
2018-03-01T07:44:09.616Z,8.90
2018-03-01T07:46:37.178Z,8.80
2018-03-01T07:49:04.734Z,8.60
2018-03-01T07:51:32.251Z,8.50
2018-03-01T07:53:59.805Z,8.50
2018-03-01T07:56:27.754Z,8.30
2018-03-01T07:58:55.278Z,8.30
2018-03-01T08:01:22.873Z,8.30
2018-03-01T08:03:50.804Z,8.20
2018-03-01T08:06:18.319Z,8.20
2018-03-01T08:08:46.270Z,8.10
2018-03-01T08:11:13.787Z,8.00
2018-03-01T08:13:41.550Z,8.00
2018-03-01T08:16:09.057Z,7.90
2018-03-01T08:18:39.779Z,7.90
2018-03-01T08:21:07.296Z,8.20
2018-03-01T08:23:34.892Z,8.50
2018-03-01T08:26:02.419Z,8.80
2018-03-01T08:28:30.011Z,9.10
2018-03-01T08:30:57.542Z,9.40
2018-03-01T08:33:25.059Z,9.60
2018-03-01T08:35:52.619Z,9.90
2018-03-01T08:38:20.260Z,10.30
2018-03-01T08:40:48.174Z,10.60
2018-03-01T08:43:15.772Z,10.60
2018-03-01T08:45:45.703Z,10.90
2018-03-01T08:48:13.246Z,10.90
2018-03-01T08:50:41.212Z,11.20
2018-03-01T08:53:08.730Z,11.20
2018-03-01T08:55:36.291Z,11.20
2018-03-01T08:58:03.825Z,11.40
2018-03-01T09:00:31.338Z,11.50
2018-03-01T09:02:58.866Z,11.20
2018-03-01T09:05:26.374Z,10.80
2018-03-01T09:07:53.914Z,10.40
2018-03-01T09:10:21.475Z,10.10
2018-03-01T09:12:49.378Z,9.60
2018-03-01T09:15:16.925Z,9.60
2018-03-01T09:17:44.450Z,9.40
2018-03-01T09:20:11.964Z,9.20
2018-03-01T09:22:39.597Z,9.00
2018-03-01T09:25:15.497Z,8.90
2018-03-01T09:27:43.139Z,8.70
2018-03-01T09:30:10.748Z,8.60
2018-03-01T09:32:38.278Z,8.50
2018-03-01T09:35:09.754Z,8.40
2018-03-01T09:37:37.263Z,8.40
2018-03-01T09:40:04.866Z,8.30
2018-03-01T09:42:32.382Z,8.20
2018-03-01T09:44:59.898Z,8.20
2018-03-01T09:47:27.852Z,8.00
2018-03-01T09:49:55.658Z,8.00
2018-03-01T09:52:23.382Z,7.90
2018-03-01T09:54:50.911Z,7.90
2018-03-01T09:57:18.728Z,8.20
2018-03-01T09:59:46.636Z,8.50
2018-03-01T10:02:14.215Z,8.80
2018-03-01T10:04:41.793Z,9.20
2018-03-01T10:07:09.823Z,10.10
2018-03-01T10:09:37.307Z,10.10
2018-03-01T10:12:04.839Z,10.30
2018-03-01T10:14:32.363Z,10.60
2018-03-01T10:16:59.874Z,10.80
2018-03-01T10:19:27.408Z,10.90
2018-03-01T10:21:54.956Z,11.00
2018-03-01T10:24:22.504Z,11.10
2018-03-01T10:26:50.156Z,11.20
2018-03-01T10:29:17.706Z,10.80
2018-03-01T10:31:45.275Z,10.40
2018-03-01T10:34:12.843Z,10.00
2018-03-01T10:36:40.399Z,9.60
2018-03-01T10:39:07.941Z,9.40
2018-03-01T10:41:35.470Z,9.10
2018-03-01T10:44:02.976Z,8.90
2018-03-01T10:46:30.522Z,8.80
2018-03-01T10:48:58.060Z,8.70
2018-03-01T10:51:25.967Z,8.50
2018-03-01T10:53:53.714Z,8.50
2018-03-01T10:56:21.191Z,8.50
2018-03-01T10:58:48.704Z,8.40
2018-03-01T11:01:19.520Z,8.20
2018-03-01T11:03:47.435Z,8.20
2018-03-01T11:06:14.939Z,8.20
2018-03-01T11:08:42.735Z,8.10
2018-03-01T11:11:10.291Z,8.00
2018-03-01T11:13:37.926Z,8.00
2018-03-01T11:16:05.887Z,7.90
2018-03-01T11:18:33.506Z,7.90
2018-03-01T11:21:01.057Z,8.30
2018-03-01T11:23:28.599Z,8.60
2018-03-01T11:25:56.178Z,8.90
2018-03-01T11:28:24.108Z,9.70
2018-03-01T11:30:51.613Z,9.70
2018-03-01T11:33:19.247Z,10.00
2018-03-01T11:35:46.756Z,10.20
2018-03-01T11:38:14.395Z,10.50
2018-03-01T11:40:41.912Z,10.70
2018-03-01T11:43:09.428Z,10.90
2018-03-01T11:45:36.961Z,11.00
2018-03-01T11:48:04.524Z,11.20
2018-03-01T11:50:32.121Z,11.30
2018-03-01T11:52:59.693Z,11.50
2018-03-01T11:55:27.238Z,11.60
2018-03-01T11:57:54.762Z,11.70
2018-03-01T12:00:22.674Z,11.70
2018-03-01T12:02:51.730Z,11.70
2018-03-01T12:05:27.520Z,11.60
2018-03-01T12:07:55.325Z,11.20
2018-03-01T12:10:33.396Z,10.80
2018-03-01T12:13:00.914Z,10.40
2018-03-01T12:15:33.944Z,10.10
2018-03-01T12:18:15.102Z,9.80
2018-03-01T12:20:45.791Z,9.60
2018-03-01T12:23:15.789Z,9.10
2018-03-01T12:25:57.227Z,9.20
2018-03-01T12:28:24.745Z,9.00
2018-03-01T12:31:09.392Z,8.90
2018-03-01T12:33:36.910Z,8.80
2018-03-01T12:36:09.891Z,8.70
2018-03-01T12:38:37.696Z,8.60
2018-03-01T12:41:05.202Z,8.50
2018-03-01T12:43:32.713Z,8.50
2018-03-01T12:46:03.806Z,8.40
2018-03-01T12:48:39.514Z,8.30
2018-03-01T12:51:07.427Z,8.30
2018-03-01T12:53:39.842Z,8.30
2018-03-01T12:56:27.094Z,8.20
2018-03-01T12:58:54.668Z,8.20
2018-03-01T13:01:39.205Z,8.10
2018-03-01T13:04:07.113Z,8.00
2018-03-01T13:06:45.518Z,8.00
2018-03-01T13:09:15.779Z,8.00
2018-03-01T13:11:57.127Z,8.00
2018-03-01T13:14:24.690Z,8.30
2018-03-01T13:16:52.198Z,8.60
2018-03-01T13:19:20.095Z,9.30
2018-03-01T13:22:03.132Z,9.30
2018-03-01T13:24:39.532Z,9.70
2018-03-01T13:27:07.039Z,10.10
2018-03-01T13:29:39.890Z,10.40
2018-03-01T13:32:11.579Z,11.00
2018-03-01T13:35:01.910Z,11.00
2018-03-01T13:37:45.195Z,11.10
2018-03-01T13:40:12.728Z,11.30
2018-03-01T13:42:46.673Z,11.50
2018-03-01T13:45:21.659Z,11.60
2018-03-01T13:47:51.759Z,11.70
2018-03-01T13:50:21.844Z,11.70
2018-03-01T13:52:49.361Z,11.30
2018-03-01T13:55:27.442Z,10.90
2018-03-01T13:57:54.974Z,10.40
2018-03-01T14:00:39.383Z,10.10
2018-03-01T14:03:09.986Z,9.80
2018-03-01T14:06:02.676Z,9.50
2018-03-01T14:08:30.177Z,9.30
2018-03-01T14:11:15.279Z,9.00
2018-03-01T14:13:42.815Z,9.00
2018-03-01T14:16:21.619Z,8.90
2018-03-01T14:19:16.298Z,8.80
2018-03-01T14:24:44.113Z,8.50
2018-03-01T14:27:14.227Z,8.50
2018-03-01T14:29:47.448Z,8.40
2018-03-01T14:32:14.962Z,8.40
2018-03-01T14:34:42.475Z,8.30
2018-03-01T14:37:10.244Z,8.30
2018-03-01T14:39:37.762Z,8.20
2018-03-01T14:42:05.688Z,8.10
2018-03-01T14:44:33.389Z,8.10
2018-03-01T14:47:00.920Z,8.10
2018-03-01T14:49:28.423Z,8.10
2018-03-01T14:51:56.017Z,8.00
2018-03-01T14:54:23.636Z,8.00
2018-03-01T14:56:51.999Z,8.10
2018-03-01T14:59:19.562Z,8.10
2018-03-01T15:01:47.136Z,8.30
2018-03-01T15:04:15.040Z,8.90
2018-03-01T15:06:42.758Z,8.90
2018-03-01T15:09:10.677Z,9.70
2018-03-01T15:11:38.478Z,9.70
2018-03-01T15:14:07.081Z,10.00
2018-03-01T15:16:34.988Z,10.50
2018-03-01T15:19:02.522Z,10.50
2018-03-01T15:21:30.030Z,10.70
2018-03-01T15:23:57.590Z,10.90
2018-03-01T15:26:25.099Z,11.10
2018-03-01T15:28:52.620Z,11.20
2018-03-01T15:31:20.134Z,11.40
2018-03-01T15:33:47.757Z,11.50
2018-03-01T15:36:15.380Z,11.50
2018-03-01T15:38:42.891Z,11.60
2018-03-01T15:41:10.495Z,11.70
2018-03-01T15:43:38.011Z,11.70
2018-03-01T15:46:05.614Z,11.60
2018-03-01T15:48:33.142Z,11.20
2018-03-01T15:51:00.652Z,10.70
2018-03-01T15:53:28.190Z,10.40
2018-03-01T15:55:55.707Z,10.00
2018-03-01T15:58:23.220Z,9.70
2018-03-01T16:00:50.726Z,9.50
2018-03-01T16:03:18.332Z,9.30
2018-03-01T16:05:45.856Z,9.10
2018-03-01T16:08:13.510Z,9.00
2018-03-01T16:10:41.127Z,8.90
2018-03-01T16:13:08.643Z,8.80
2018-03-01T16:15:36.188Z,8.70
2018-03-01T16:18:03.696Z,8.60
2018-03-01T16:20:31.273Z,8.60
2018-03-01T16:22:59.206Z,8.40
2018-03-01T16:25:26.735Z,8.40
2018-03-01T16:27:54.386Z,8.30
2018-03-01T16:30:22.006Z,8.20
2018-03-01T16:32:49.523Z,8.20
2018-03-01T16:35:17.132Z,8.20
2018-03-01T16:37:44.640Z,8.20
2018-03-01T16:40:12.196Z,8.10
2018-03-01T16:42:39.703Z,8.10
2018-03-01T16:45:07.599Z,8.00
2018-03-01T16:47:35.218Z,8.00
2018-03-01T16:50:03.128Z,7.90
2018-03-01T16:52:30.664Z,7.90
2018-03-01T16:54:58.178Z,8.20
2018-03-01T16:57:25.711Z,8.50
2018-03-01T16:59:53.311Z,8.80
2018-03-01T17:02:20.833Z,9.20
2018-03-01T17:04:48.422Z,9.60
2018-03-01T17:07:15.950Z,10.00
2018-03-01T17:09:43.465Z,10.20
2018-03-01T17:12:11.410Z,10.60
2018-03-01T17:14:38.922Z,10.60
2018-03-01T17:17:06.515Z,10.90
2018-03-01T17:19:34.036Z,11.00
2018-03-01T17:22:01.635Z,11.20
2018-03-01T17:24:29.162Z,11.20
2018-03-01T17:26:56.755Z,11.40
2018-03-01T17:29:24.278Z,11.60
2018-03-01T17:31:51.796Z,11.70
2018-03-01T17:34:19.765Z,11.60
2018-03-01T17:36:47.678Z,11.20
2018-03-01T17:39:15.282Z,11.20
2018-03-01T17:41:42.799Z,10.70
2018-03-01T17:44:15.944Z,10.20
2018-03-01T17:46:43.447Z,9.90
2018-03-01T17:49:11.022Z,9.60
2018-03-01T17:51:38.539Z,9.30
2018-03-01T17:54:06.072Z,9.10
2018-03-01T17:56:34.323Z,9.00
2018-03-01T17:59:02.228Z,8.70
2018-03-01T18:01:29.751Z,8.70
2018-03-01T18:03:57.271Z,8.60
2018-03-01T18:06:28.152Z,8.50
2018-03-01T18:08:55.762Z,8.40
2018-03-01T18:11:23.278Z,8.30
2018-03-01T18:13:50.902Z,8.20
2018-03-01T18:16:18.434Z,8.10
2018-03-01T18:18:45.993Z,8.10
2018-03-01T18:21:13.517Z,8.10
2018-03-01T18:23:41.030Z,8.00
2018-03-01T18:26:10.223Z,7.90
2018-03-01T18:28:56.962Z,7.90
2018-03-01T18:31:33.866Z,7.90
2018-03-01T18:34:01.372Z,8.30
2018-03-01T18:36:28.914Z,8.60
2018-03-01T18:38:56.455Z,8.90
2018-03-01T18:41:24.028Z,9.30
2018-03-01T18:43:51.937Z,10.00
2018-03-01T18:46:19.472Z,10.00
2018-03-01T18:48:47.398Z,10.70
2018-03-01T18:51:14.926Z,10.70
2018-03-01T18:53:42.447Z,10.90
2018-03-01T18:56:10.415Z,11.30
2018-03-01T18:58:37.956Z,11.30
2018-03-01T19:01:05.522Z,11.30
2018-03-01T19:03:33.036Z,11.50
2018-03-01T19:06:00.641Z,11.60
2018-03-01T19:08:28.290Z,11.70
2018-03-01T19:10:55.830Z,11.70
2018-03-01T19:13:23.397Z,11.80
2018-03-01T19:15:50.981Z,11.80
2018-03-01T19:18:18.555Z,11.50
2018-03-01T19:20:46.181Z,11.00
2018-03-01T19:23:13.714Z,10.50
2018-03-01T19:25:41.247Z,10.10
2018-03-01T19:28:08.754Z,9.80
2018-03-01T19:30:36.258Z,9.50
2018-03-01T19:33:03.873Z,9.30
2018-03-01T19:35:31.383Z,9.00
2018-03-01T19:37:59.017Z,8.80
2018-03-01T19:40:26.523Z,8.70
2018-03-01T19:42:54.109Z,8.60
2018-03-01T19:45:21.619Z,8.50
2018-03-01T19:47:49.219Z,8.40
2018-03-01T19:50:16.732Z,8.30
2018-03-01T19:52:44.343Z,8.30
2018-03-01T19:55:11.854Z,8.20
2018-03-01T19:57:39.464Z,8.10
2018-03-01T20:00:06.977Z,8.10
2018-03-01T20:02:34.501Z,8.00
2018-03-01T20:05:04.116Z,8.00
2018-03-01T20:07:31.709Z,8.00
2018-03-01T20:09:59.225Z,8.00
2018-03-01T20:12:33.646Z,8.30
2018-03-01T20:15:09.776Z,8.80
2018-03-01T20:17:37.422Z,9.20
2018-03-01T20:20:04.942Z,9.50
2018-03-01T20:22:32.522Z,9.90
2018-03-01T20:25:00.046Z,10.30
2018-03-01T20:27:27.654Z,10.60
2018-03-01T20:29:55.586Z,11.10
2018-03-01T20:32:23.121Z,11.10
2018-03-01T20:34:50.643Z,11.20
2018-03-01T20:37:18.306Z,11.40
2018-03-01T20:39:45.830Z,11.50
2018-03-01T20:42:13.379Z,11.60
2018-03-01T20:44:40.911Z,11.70
2018-03-01T20:47:08.432Z,11.70
2018-03-01T20:49:45.702Z,11.30
2018-03-01T20:52:16.116Z,10.30
2018-03-01T20:54:43.643Z,10.30
2018-03-01T20:57:16.149Z,9.90
2018-03-01T20:59:43.677Z,9.50
2018-03-01T21:02:16.181Z,9.30
2018-03-01T21:04:43.712Z,9.10
2018-03-01T21:07:11.310Z,8.90
2018-03-01T21:09:39.010Z,8.70
2018-03-01T21:12:06.621Z,8.60
2018-03-01T21:14:34.149Z,8.50
2018-03-01T21:17:01.734Z,8.40
2018-03-01T21:19:29.263Z,8.30
2018-03-01T21:21:56.786Z,8.20
2018-03-01T21:24:24.349Z,8.20
2018-03-01T21:26:51.857Z,8.10
2018-03-01T21:29:19.449Z,8.00
2018-03-01T21:31:46.978Z,8.00
2018-03-01T21:34:14.504Z,7.90
2018-03-01T21:36:42.025Z,7.90
2018-03-01T21:39:09.547Z,8.20
2018-03-01T21:41:37.061Z,8.60
2018-03-01T21:44:15.731Z,9.00
2018-03-01T21:46:55.268Z,9.30
2018-03-01T21:49:28.184Z,9.80
2018-03-01T21:51:55.822Z,10.00
2018-03-01T21:54:23.377Z,10.30
2018-03-01T21:56:50.896Z,10.60
2018-03-01T21:59:18.445Z,10.90
2018-03-01T22:01:45.966Z,10.90
2018-03-01T22:04:13.878Z,11.30
2018-03-01T22:06:41.392Z,11.30
2018-03-01T22:09:09.310Z,11.60
2018-03-01T22:11:36.826Z,11.60
2018-03-01T22:14:04.353Z,11.70
2018-03-01T22:16:31.882Z,11.80
2018-03-01T22:18:59.468Z,11.60
2018-03-01T22:21:26.993Z,11.20
2018-03-01T22:23:54.641Z,10.80
2018-03-01T22:26:22.158Z,10.30
2018-03-01T22:28:50.059Z,9.50
2018-03-01T22:31:17.610Z,9.50
2018-03-01T22:33:45.130Z,9.30
2018-03-01T22:36:12.731Z,9.10
2018-03-01T22:38:40.385Z,8.90
2018-03-01T22:41:08.040Z,8.70
2018-03-01T22:43:35.952Z,8.50
2018-03-01T22:46:03.602Z,8.50
2018-03-01T22:48:31.198Z,8.40
2018-03-01T22:50:59.111Z,8.20
2018-03-01T22:53:26.645Z,8.20
2018-03-01T22:55:54.613Z,8.10
2018-03-01T22:58:22.525Z,8.10
2018-03-01T23:00:53.910Z,8.10
2018-03-01T23:03:21.879Z,7.90
2018-03-01T23:05:49.395Z,7.90
2018-03-01T23:08:17.000Z,7.90
2018-03-01T23:10:44.912Z,8.20
2018-03-01T23:13:12.515Z,8.20
2018-03-01T23:15:40.070Z,8.60
2018-03-01T23:18:07.635Z,8.90
2018-03-01T23:20:35.171Z,9.30
2018-03-01T23:23:02.757Z,9.80
2018-03-01T23:25:30.302Z,10.10
2018-03-01T23:27:57.891Z,10.40
2018-03-01T23:30:25.421Z,10.70
2018-03-01T23:32:58.104Z,10.80
2018-03-01T23:35:25.627Z,11.00
2018-03-01T23:37:53.235Z,11.20
2018-03-01T23:40:21.150Z,11.60
2018-03-01T23:42:48.793Z,11.60
2018-03-01T23:45:16.312Z,11.70
2018-03-01T23:47:44.282Z,11.90
2018-03-01T23:50:11.804Z,11.90
2018-03-01T23:52:39.322Z,11.80
2018-03-01T23:55:06.885Z,11.40
2018-03-01T23:57:34.504Z,10.90
